createdAt,value
2017-07-16T00:01:27.479Z,98.70
2017-07-16T00:03:54.924Z,99.10
2017-07-16T00:06:23.140Z,98.10
2017-07-16T00:08:50.600Z,98.10
2017-07-16T00:11:18.049Z,98.60
2017-07-16T00:13:45.491Z,99.60
2017-07-16T00:16:12.939Z,99.40
2017-07-16T00:18:40.383Z,99.10
2017-07-16T00:21:08.607Z,98.90
2017-07-16T00:23:36.072Z,98.90
2017-07-16T00:26:03.531Z,99.50
2017-07-16T00:28:30.979Z,99.90
2017-07-16T00:30:58.474Z,99.90
2017-07-16T00:33:26.676Z,99.90
2017-07-16T00:35:54.124Z,99.90
2017-07-16T00:38:21.563Z,99.90
2017-07-16T00:40:49.792Z,99.90
2017-07-16T00:43:17.246Z,99.90
2017-07-16T00:45:44.693Z,99.90
2017-07-16T00:48:12.155Z,99.90
2017-07-16T00:50:39.604Z,99.90
2017-07-16T00:53:07.063Z,99.90
2017-07-16T00:55:34.504Z,99.90
2017-07-16T00:58:01.950Z,99.90
2017-07-16T01:00:29.395Z,99.90
2017-07-16T01:02:57.619Z,99.90
2017-07-16T01:05:25.065Z,99.90
2017-07-16T01:07:52.517Z,99.90
2017-07-16T01:10:19.971Z,99.90
2017-07-16T01:12:47.415Z,99.90
2017-07-16T01:15:14.873Z,99.90
2017-07-16T01:17:42.311Z,99.90
2017-07-16T01:20:09.772Z,99.90
2017-07-16T01:22:37.975Z,99.90
2017-07-16T01:25:05.428Z,99.90
2017-07-16T01:27:32.876Z,99.90
2017-07-16T01:30:00.343Z,99.90
2017-07-16T01:32:27.797Z,99.90
2017-07-16T01:34:55.245Z,99.90
2017-07-16T01:37:22.697Z,99.50
2017-07-16T01:39:50.143Z,99.50
2017-07-16T01:42:17.588Z,99.60
2017-07-16T01:44:45.036Z,99.70
2017-07-16T01:47:13.268Z,99.90
2017-07-16T01:49:40.708Z,99.90
2017-07-16T01:52:08.164Z,99.90
2017-07-16T01:54:35.618Z,99.90
2017-07-16T01:57:03.100Z,99.90
2017-07-16T01:59:30.558Z,99.90
2017-07-16T02:01:58.011Z,99.90
2017-07-16T02:04:25.455Z,99.90
2017-07-16T02:06:52.899Z,99.90
2017-07-16T02:09:20.356Z,99.80
2017-07-16T02:11:47.816Z,99.50
2017-07-16T02:14:15.268Z,99.70
2017-07-16T02:16:42.712Z,99.90
2017-07-16T02:19:10.185Z,99.90
2017-07-16T02:21:37.639Z,99.90
2017-07-16T02:24:05.079Z,99.90
2017-07-16T02:26:32.524Z,99.90
2017-07-16T02:28:59.963Z,99.90
2017-07-16T02:31:28.179Z,99.90
2017-07-16T02:33:55.622Z,99.90
2017-07-16T02:36:23.068Z,99.90
2017-07-16T02:38:52.088Z,99.90
2017-07-16T02:41:19.545Z,99.90
2017-07-16T02:43:46.993Z,99.90
2017-07-16T02:46:14.446Z,99.90
2017-07-16T02:48:41.904Z,99.90
2017-07-16T02:51:09.339Z,99.90
2017-07-16T02:53:36.787Z,99.90
2017-07-16T02:56:04.231Z,99.90
2017-07-16T02:58:32.451Z,99.90
2017-07-16T03:00:59.891Z,99.90
2017-07-16T03:03:27.340Z,99.90
2017-07-16T03:05:54.780Z,99.90
2017-07-16T03:08:23.016Z,99.90
2017-07-16T03:10:50.460Z,99.90
2017-07-16T03:13:17.904Z,99.90
2017-07-16T03:15:45.357Z,99.90
2017-07-16T03:18:12.800Z,99.90
2017-07-16T03:20:40.247Z,99.90
2017-07-16T03:23:07.691Z,99.90
2017-07-16T03:25:37.846Z,99.90
2017-07-16T03:28:05.287Z,99.90
2017-07-16T03:30:32.736Z,99.90
2017-07-16T03:33:00.179Z,99.90
2017-07-16T03:35:28.415Z,99.90
2017-07-16T03:37:55.868Z,99.90
2017-07-16T03:40:23.324Z,99.90
2017-07-16T03:42:50.786Z,99.90
2017-07-16T03:45:18.228Z,99.90
2017-07-16T03:47:45.680Z,99.90
2017-07-16T03:50:13.132Z,99.90
2017-07-16T03:52:40.586Z,99.90
2017-07-16T03:55:08.028Z,99.90
2017-07-16T03:57:35.472Z,99.80
2017-07-16T04:00:02.912Z,99.90
2017-07-16T04:02:31.125Z,99.80
2017-07-16T04:04:58.579Z,99.80
2017-07-16T04:07:26.029Z,99.70
2017-07-16T04:09:53.480Z,99.90
2017-07-16T04:12:20.925Z,99.80
2017-07-16T04:14:48.367Z,99.90
2017-07-16T04:17:16.580Z,99.90
2017-07-16T04:19:44.039Z,99.90
2017-07-16T04:22:11.490Z,99.90
2017-07-16T04:24:38.928Z,99.90
2017-07-16T04:27:06.373Z,99.80
2017-07-16T04:29:33.821Z,99.70
2017-07-16T04:32:02.041Z,99.60
2017-07-16T04:34:29.488Z,99.60
2017-07-16T04:36:56.944Z,99.80
2017-07-16T04:39:24.394Z,99.60
2017-07-16T04:41:51.852Z,99.20
2017-07-16T04:44:19.306Z,99.30
2017-07-16T04:46:46.769Z,99.60
2017-07-16T04:49:14.222Z,99.20
2017-07-16T04:51:41.675Z,99.00
2017-07-16T04:54:09.112Z,98.70
2017-07-16T04:56:36.556Z,98.30
2017-07-16T04:59:04.772Z,98.40
2017-07-16T05:01:32.225Z,98.30
2017-07-16T05:03:59.683Z,97.90
2017-07-16T05:06:27.123Z,97.80
2017-07-16T05:08:54.577Z,97.60
2017-07-16T05:11:22.015Z,97.60
2017-07-16T05:13:49.464Z,97.40
2017-07-16T05:16:17.680Z,97.00
2017-07-16T05:18:45.171Z,96.90
2017-07-16T05:21:12.615Z,96.90
2017-07-16T05:23:40.066Z,97.10
2017-07-16T05:26:07.531Z,96.50
2017-07-16T05:28:35.013Z,96.20
2017-07-16T05:31:03.229Z,95.30
2017-07-16T05:33:30.667Z,95.50
2017-07-16T05:35:58.110Z,95.00
2017-07-16T05:38:26.320Z,93.50
2017-07-16T05:40:53.777Z,93.50
2017-07-16T05:43:21.221Z,92.20
2017-07-16T05:45:48.674Z,90.00
2017-07-16T05:48:16.111Z,85.80
2017-07-16T05:50:44.323Z,77.00
2017-07-16T05:53:11.775Z,76.80
2017-07-16T05:55:39.236Z,70.20
2017-07-16T05:58:06.687Z,66.10
2017-07-16T06:00:34.146Z,63.40
2017-07-16T06:03:01.599Z,60.60
2017-07-16T06:05:29.064Z,58.00
2017-07-16T06:07:56.513Z,59.80
2017-07-16T06:10:23.981Z,57.40
2017-07-16T06:12:51.426Z,56.60
2017-07-16T06:15:18.887Z,56.20
2017-07-16T06:17:46.339Z,55.50
2017-07-16T06:20:13.792Z,54.20
2017-07-16T06:22:41.252Z,54.80
2017-07-16T06:25:08.757Z,54.40
2017-07-16T06:27:36.203Z,53.40
2017-07-16T06:30:03.655Z,51.90
2017-07-16T06:32:31.107Z,52.80
2017-07-16T06:34:58.551Z,52.90
2017-07-16T06:37:26.018Z,52.60
2017-07-16T06:39:53.448Z,52.20
2017-07-16T06:42:20.899Z,52.10
2017-07-16T06:44:48.356Z,52.30
2017-07-16T06:47:15.799Z,52.90
2017-07-16T06:49:43.255Z,52.60
2017-07-16T06:52:10.697Z,53.60
2017-07-16T06:54:38.148Z,55.10
2017-07-16T06:57:06.358Z,56.80
2017-07-16T06:59:33.812Z,56.80
2017-07-16T07:02:01.248Z,55.70
2017-07-16T07:04:28.697Z,56.10
2017-07-16T07:06:56.130Z,53.80
2017-07-16T07:09:24.366Z,55.40
2017-07-16T07:11:51.813Z,55.40
2017-07-16T07:14:19.251Z,57.60
2017-07-16T07:16:46.707Z,55.90
2017-07-16T07:19:14.166Z,54.70
2017-07-16T07:21:41.611Z,57.70
2017-07-16T07:24:09.056Z,58.60
2017-07-16T07:26:36.502Z,60.50
2017-07-16T07:29:03.960Z,59.10
2017-07-16T07:31:31.552Z,57.80
2017-07-16T07:33:59.092Z,60.90
2017-07-16T07:36:26.539Z,60.20
2017-07-16T07:38:53.983Z,59.00
2017-07-16T07:41:21.431Z,57.30
2017-07-16T07:43:48.871Z,54.40
2017-07-16T07:46:16.336Z,55.60
2017-07-16T07:48:43.779Z,55.70
2017-07-16T07:51:11.228Z,53.70
2017-07-16T07:53:38.696Z,53.60
2017-07-16T07:56:06.131Z,51.80
2017-07-16T07:58:33.574Z,51.80
2017-07-16T08:01:01.801Z,51.20
2017-07-16T08:03:29.257Z,51.20
2017-07-16T08:05:56.703Z,51.40
2017-07-16T08:08:24.152Z,50.80
2017-07-16T08:10:51.592Z,49.70
2017-07-16T08:13:19.050Z,49.10
2017-07-16T08:15:46.482Z,48.70
2017-07-16T08:18:14.695Z,52.70
2017-07-16T08:20:42.139Z,52.70
2017-07-16T08:23:09.592Z,51.40
2017-07-16T08:25:37.026Z,52.40
2017-07-16T08:28:05.259Z,57.60
2017-07-16T08:30:32.715Z,57.50
2017-07-16T08:33:00.171Z,55.70
2017-07-16T08:35:27.627Z,55.60
2017-07-16T08:37:55.088Z,55.90
2017-07-16T08:40:22.532Z,54.90
2017-07-16T08:42:49.979Z,53.00
2017-07-16T08:45:17.432Z,50.20
2017-07-16T08:47:45.126Z,49.20
2017-07-16T08:50:12.589Z,51.00
2017-07-16T08:52:40.027Z,49.20
2017-07-16T08:55:07.480Z,50.80
2017-07-16T08:57:34.926Z,44.80
2017-07-16T09:00:02.383Z,45.70
2017-07-16T09:02:29.828Z,50.60
2017-07-16T09:04:57.268Z,49.60
2017-07-16T09:07:24.716Z,48.30
2017-07-16T09:09:52.157Z,49.30
2017-07-16T09:12:20.381Z,47.80
2017-07-16T09:14:47.851Z,47.20
2017-07-16T09:17:15.303Z,46.30
2017-07-16T09:19:42.747Z,48.70
2017-07-16T09:22:10.194Z,46.10
2017-07-16T09:24:37.642Z,45.90
2017-07-16T09:27:05.079Z,47.10
2017-07-16T09:29:32.519Z,45.50
2017-07-16T09:32:00.735Z,40.50
2017-07-16T09:34:28.175Z,40.40
2017-07-16T09:36:55.624Z,40.70
2017-07-16T09:39:23.061Z,40.80
2017-07-16T09:41:50.539Z,46.90
2017-07-16T09:44:17.963Z,44.20
2017-07-16T09:46:45.415Z,46.80
2017-07-16T09:49:12.872Z,46.80
2017-07-16T09:51:40.312Z,47.30
2017-07-16T09:54:07.757Z,43.40
2017-07-16T09:56:35.195Z,41.70
2017-07-16T09:59:03.435Z,38.20
2017-07-16T10:01:30.888Z,38.10
2017-07-16T10:03:58.336Z,41.40
2017-07-16T10:06:25.785Z,42.40
2017-07-16T10:08:53.235Z,38.60
2017-07-16T10:11:20.681Z,39.60
2017-07-16T10:13:48.147Z,42.80
2017-07-16T10:16:15.592Z,39.40
2017-07-16T10:18:43.031Z,42.40
2017-07-16T10:21:10.483Z,41.10
2017-07-16T10:23:38.691Z,44.40
2017-07-16T10:26:06.148Z,44.40
2017-07-16T10:28:33.601Z,43.90
2017-07-16T10:31:01.048Z,46.00
2017-07-16T10:33:28.487Z,45.20
2017-07-16T10:35:55.934Z,43.80
2017-07-16T10:38:24.144Z,42.30
2017-07-16T10:40:51.603Z,42.20
2017-07-16T10:43:19.043Z,38.50
2017-07-16T10:45:46.496Z,38.30
2017-07-16T10:48:13.936Z,34.90
2017-07-16T10:50:42.172Z,42.40
2017-07-16T10:53:09.612Z,42.40
2017-07-16T10:55:37.054Z,43.40
2017-07-16T10:58:04.511Z,43.80
2017-07-16T11:00:31.957Z,44.50
2017-07-16T11:02:59.428Z,44.40
2017-07-16T11:05:26.883Z,44.50
2017-07-16T11:07:54.340Z,44.00
2017-07-16T11:10:21.795Z,42.50
2017-07-16T11:12:49.253Z,40.30
2017-07-16T11:15:16.709Z,36.90
2017-07-16T11:17:44.161Z,36.90
2017-07-16T11:20:11.612Z,37.60
2017-07-16T11:22:39.075Z,37.90
2017-07-16T11:25:06.550Z,36.80
2017-07-16T11:27:34.807Z,38.30
2017-07-16T11:30:02.263Z,38.20
2017-07-16T11:32:29.718Z,42.90
2017-07-16T11:34:57.175Z,41.40
2017-07-16T11:37:24.632Z,39.00
2017-07-16T11:39:52.083Z,36.90
2017-07-16T11:42:19.520Z,34.90
2017-07-16T11:44:46.968Z,40.00
2017-07-16T11:47:14.419Z,39.80
2017-07-16T11:49:42.631Z,34.50
2017-07-16T11:52:10.067Z,34.40
2017-07-16T11:54:37.519Z,33.30
2017-07-16T11:57:04.961Z,33.70
2017-07-16T11:59:32.429Z,34.80
2017-07-16T12:01:59.872Z,35.00
2017-07-16T12:04:28.083Z,38.00
2017-07-16T12:06:55.539Z,37.80
2017-07-16T12:09:22.989Z,41.70
2017-07-16T12:11:50.439Z,41.90
2017-07-16T12:14:17.881Z,43.30
2017-07-16T12:16:45.328Z,41.70
2017-07-16T12:19:13.537Z,40.60
2017-07-16T12:21:40.992Z,40.60
2017-07-16T12:24:08.435Z,42.30
2017-07-16T12:26:35.908Z,42.50
2017-07-16T12:29:03.360Z,44.80
2017-07-16T12:31:30.813Z,43.70
2017-07-16T12:33:58.257Z,43.50
2017-07-16T12:36:25.695Z,42.90
2017-07-16T12:38:53.912Z,41.40
2017-07-16T12:41:21.347Z,41.40
2017-07-16T12:43:48.793Z,40.30
2017-07-16T12:46:16.230Z,42.10
2017-07-16T12:48:44.448Z,41.40
2017-07-16T12:51:11.891Z,41.40
2017-07-16T12:53:39.340Z,40.40
2017-07-16T12:56:06.779Z,38.50
2017-07-16T12:58:35.002Z,43.40
2017-07-16T13:01:02.448Z,43.40
2017-07-16T13:03:29.900Z,42.20
2017-07-16T13:05:57.364Z,43.00
2017-07-16T13:08:24.800Z,44.80
2017-07-16T13:10:52.249Z,44.20
2017-07-16T13:13:19.695Z,44.60
2017-07-16T13:15:47.147Z,45.10
2017-07-16T13:18:15.360Z,45.20
2017-07-16T13:20:42.815Z,45.10
2017-07-16T13:23:10.267Z,44.90
2017-07-16T13:25:37.726Z,45.00
2017-07-16T13:28:05.180Z,45.70
2017-07-16T13:30:32.639Z,43.50
2017-07-16T13:33:00.080Z,41.90
2017-07-16T13:35:27.519Z,41.50
2017-07-16T13:37:54.974Z,42.20
2017-07-16T13:40:23.179Z,45.70
2017-07-16T13:42:50.633Z,45.70
2017-07-16T13:45:18.088Z,43.90
2017-07-16T13:47:46.219Z,43.30
2017-07-16T13:50:14.437Z,46.30
2017-07-16T13:52:41.904Z,46.30
2017-07-16T13:55:09.348Z,45.70
2017-07-16T13:57:36.792Z,44.90
2017-07-16T14:00:04.243Z,44.10
2017-07-16T14:02:31.685Z,42.10
2017-07-16T14:04:59.896Z,46.10
2017-07-16T14:07:27.349Z,46.10
2017-07-16T14:09:54.804Z,45.70
2017-07-16T14:12:22.248Z,45.90
2017-07-16T14:14:49.711Z,45.70
2017-07-16T14:17:17.152Z,43.80
2017-07-16T14:19:44.656Z,44.30
2017-07-16T14:22:12.100Z,45.40
2017-07-16T14:24:39.556Z,45.00
2017-07-16T14:27:06.999Z,45.20
2017-07-16T14:29:34.443Z,48.70
2017-07-16T14:32:01.890Z,46.80
2017-07-16T14:34:29.337Z,46.40
2017-07-16T14:36:56.822Z,48.10
2017-07-16T14:39:24.995Z,49.50
2017-07-16T14:41:52.452Z,49.40
2017-07-16T14:44:19.896Z,47.60
2017-07-16T14:46:47.344Z,46.70
2017-07-16T14:49:14.779Z,47.30
2017-07-16T14:51:42.991Z,44.50
2017-07-16T14:54:10.435Z,44.40
2017-07-16T14:56:37.887Z,44.00
2017-07-16T14:59:05.322Z,43.80
2017-07-16T15:01:32.871Z,42.70
2017-07-16T15:04:01.327Z,42.90
2017-07-16T15:06:28.775Z,42.10
2017-07-16T15:08:56.225Z,43.20
2017-07-16T15:11:23.668Z,44.00
2017-07-16T15:13:51.124Z,43.90
2017-07-16T15:16:18.613Z,44.40
2017-07-16T15:18:46.036Z,43.40
2017-07-16T15:21:13.487Z,42.40
2017-07-16T15:23:40.923Z,42.40
2017-07-16T15:26:08.378Z,43.50
2017-07-16T15:28:35.819Z,43.00
2017-07-16T15:31:04.037Z,44.70
2017-07-16T15:33:31.491Z,44.70
2017-07-16T15:35:58.947Z,43.70
2017-07-16T15:38:26.391Z,43.10
2017-07-16T15:40:53.858Z,43.10
2017-07-16T15:43:21.293Z,44.70
2017-07-16T15:45:48.728Z,43.60
2017-07-16T15:48:16.952Z,43.00
2017-07-16T15:50:44.400Z,43.00
2017-07-16T15:53:11.855Z,43.30
2017-07-16T15:55:39.302Z,43.10
2017-07-16T15:58:06.749Z,44.90
2017-07-16T16:00:34.191Z,43.40
2017-07-16T16:03:02.398Z,45.70
2017-07-16T16:05:29.843Z,45.60
2017-07-16T16:07:57.334Z,45.50
2017-07-16T16:10:24.754Z,44.80
2017-07-16T16:12:52.195Z,45.80
2017-07-16T16:15:19.640Z,44.50
2017-07-16T16:17:47.083Z,44.80
2017-07-16T16:20:15.307Z,43.70
2017-07-16T16:22:42.751Z,43.70
2017-07-16T16:25:10.198Z,45.40
2017-07-16T16:27:37.641Z,45.40
2017-07-16T16:30:05.856Z,44.80
2017-07-16T16:32:33.294Z,44.70
2017-07-16T16:35:00.747Z,46.40
2017-07-16T16:37:28.193Z,44.20
2017-07-16T16:39:56.420Z,46.90
2017-07-16T16:42:23.876Z,46.90
2017-07-16T16:44:51.319Z,45.50
2017-07-16T16:47:18.767Z,45.30
2017-07-16T16:49:46.208Z,45.50
2017-07-16T16:52:13.653Z,45.10
2017-07-16T16:54:41.101Z,45.00
2017-07-16T16:57:09.319Z,46.30
2017-07-16T16:59:36.762Z,46.30
2017-07-16T17:02:04.220Z,46.90
2017-07-16T17:04:31.670Z,46.70
2017-07-16T17:06:59.128Z,46.50
2017-07-16T17:09:26.563Z,45.40
2017-07-16T17:11:54.013Z,47.80
2017-07-16T17:14:22.220Z,48.10
2017-07-16T17:16:49.679Z,48.10
2017-07-16T17:19:17.116Z,47.30
2017-07-16T17:21:44.555Z,49.00
2017-07-16T17:24:12.034Z,48.50
2017-07-16T17:26:40.259Z,48.70
2017-07-16T17:29:07.711Z,48.70
2017-07-16T17:31:35.164Z,48.70
2017-07-16T17:34:02.610Z,49.20
2017-07-16T17:36:30.063Z,49.20
2017-07-16T17:38:57.511Z,48.00
2017-07-16T17:41:24.956Z,50.00
2017-07-16T17:43:52.412Z,49.50
2017-07-16T17:46:19.866Z,48.70
2017-07-16T17:48:47.317Z,48.50
2017-07-16T17:51:14.756Z,48.90
2017-07-16T17:53:42.192Z,49.40
2017-07-16T17:56:09.639Z,51.00
2017-07-16T17:58:37.084Z,50.10
2017-07-16T18:01:04.535Z,50.20
2017-07-16T18:03:31.983Z,51.80
2017-07-16T18:05:59.436Z,51.90
2017-07-16T18:08:26.883Z,51.80
2017-07-16T18:10:54.334Z,51.50
2017-07-16T18:13:21.782Z,51.20
2017-07-16T18:15:49.223Z,51.40
2017-07-16T18:18:16.699Z,51.20
2017-07-16T18:20:44.151Z,51.60
2017-07-16T18:23:11.607Z,52.90
2017-07-16T18:25:39.052Z,52.30
2017-07-16T18:28:06.496Z,52.50
2017-07-16T18:30:33.931Z,52.60
2017-07-16T18:33:01.376Z,52.50
2017-07-16T18:35:28.815Z,54.20
2017-07-16T18:37:56.273Z,53.30
2017-07-16T18:40:23.716Z,52.80
2017-07-16T18:42:51.160Z,53.00
2017-07-16T18:45:18.613Z,52.80
2017-07-16T18:47:46.047Z,53.60
2017-07-16T18:50:13.491Z,53.30
2017-07-16T18:52:41.699Z,54.70
2017-07-16T18:55:09.151Z,55.20
2017-07-16T18:57:36.594Z,54.90
2017-07-16T19:00:04.041Z,54.50
2017-07-16T19:02:31.520Z,55.60
2017-07-16T19:04:58.928Z,55.70
2017-07-16T19:07:27.150Z,56.30
2017-07-16T19:09:54.607Z,56.30
2017-07-16T19:12:22.052Z,56.40
2017-07-16T19:14:49.496Z,56.90
2017-07-16T19:17:16.941Z,57.30
2017-07-16T19:19:45.179Z,58.60
2017-07-16T19:22:12.619Z,58.50
2017-07-16T19:24:40.063Z,60.00
2017-07-16T19:27:07.519Z,60.70
2017-07-16T19:29:35.075Z,61.30
2017-07-16T19:32:02.535Z,61.70
2017-07-16T19:34:29.982Z,62.50
2017-07-16T19:36:57.444Z,62.50
2017-07-16T19:39:24.880Z,64.60
2017-07-16T19:41:52.319Z,70.90
2017-07-16T19:44:20.532Z,78.50
2017-07-16T19:46:47.988Z,78.30
2017-07-16T19:49:15.443Z,80.00
2017-07-16T19:51:42.891Z,81.10
2017-07-16T19:54:10.342Z,82.00
2017-07-16T19:56:37.775Z,83.40
2017-07-16T19:59:05.986Z,85.60
2017-07-16T20:01:33.429Z,85.40
2017-07-16T20:04:00.875Z,86.00
2017-07-16T20:06:28.315Z,86.50
2017-07-16T20:08:56.539Z,87.20
2017-07-16T20:11:23.983Z,87.20
2017-07-16T20:13:51.496Z,87.50
2017-07-16T20:16:19.712Z,88.00
2017-07-16T20:18:47.155Z,88.00
2017-07-16T20:21:14.605Z,88.60
2017-07-16T20:23:42.043Z,89.10
2017-07-16T20:26:09.490Z,90.00
2017-07-16T20:28:36.935Z,90.20
2017-07-16T20:31:04.388Z,90.60
2017-07-16T20:33:31.832Z,91.20
2017-07-16T20:35:59.482Z,92.00
2017-07-16T20:38:26.923Z,92.10
2017-07-16T20:40:54.363Z,92.60
2017-07-16T20:43:22.296Z,92.80
2017-07-16T20:45:50.519Z,92.90
2017-07-16T20:48:17.979Z,92.80
2017-07-16T20:50:45.418Z,92.40
2017-07-16T20:53:12.867Z,92.60
2017-07-16T20:55:40.304Z,92.50
2017-07-16T20:58:08.544Z,92.40
2017-07-16T21:00:35.959Z,92.40
2017-07-16T21:03:03.399Z,92.40
2017-07-16T21:05:30.846Z,92.40
2017-07-16T21:07:59.059Z,92.80
2017-07-16T21:10:26.516Z,92.80
2017-07-16T21:12:53.965Z,92.90
2017-07-16T21:15:21.416Z,92.90
2017-07-16T21:17:48.850Z,92.90
2017-07-16T21:20:17.063Z,92.90
2017-07-16T21:22:44.511Z,92.90
2017-07-16T21:25:11.972Z,92.60
2017-07-16T21:27:39.420Z,93.20
2017-07-16T21:30:06.859Z,93.30
2017-07-16T21:32:34.304Z,93.80
2017-07-16T21:35:02.516Z,94.20
2017-07-16T21:37:29.963Z,94.20
2017-07-16T21:39:57.404Z,94.00
2017-07-16T21:42:24.851Z,94.00
2017-07-16T21:44:52.335Z,93.60
2017-07-16T21:47:19.795Z,93.40
2017-07-16T21:49:47.244Z,93.70
2017-07-16T21:52:14.687Z,94.40
2017-07-16T21:54:42.128Z,94.40
2017-07-16T21:57:10.339Z,94.40
2017-07-16T21:59:37.787Z,94.40
2017-07-16T22:02:05.241Z,94.60
2017-07-16T22:04:32.700Z,94.90
2017-07-16T22:07:00.148Z,94.60
2017-07-16T22:09:27.598Z,94.90
2017-07-16T22:11:55.035Z,94.60
2017-07-16T22:14:23.252Z,94.10
2017-07-16T22:16:50.691Z,94.10
2017-07-16T22:19:18.148Z,94.00
2017-07-16T22:21:45.595Z,93.90
2017-07-16T22:24:13.038Z,93.80
2017-07-16T22:26:41.240Z,93.90
2017-07-16T22:29:08.683Z,93.90
2017-07-16T22:31:36.123Z,94.00
2017-07-16T22:34:04.331Z,94.00
2017-07-16T22:36:31.788Z,93.90
2017-07-16T22:38:59.223Z,93.90
2017-07-16T22:41:26.663Z,94.30
2017-07-16T22:43:54.872Z,94.50
2017-07-16T22:46:22.327Z,94.50
2017-07-16T22:48:49.755Z,94.50
2017-07-16T22:51:17.194Z,94.60
2017-07-16T22:53:45.403Z,95.10
2017-07-16T22:56:12.843Z,95.10
2017-07-16T22:58:40.296Z,95.20
2017-07-16T23:01:08.503Z,96.10
2017-07-16T23:03:35.958Z,96.10
2017-07-16T23:06:03.404Z,95.90
2017-07-16T23:08:30.856Z,95.60
2017-07-16T23:10:58.296Z,95.50
2017-07-16T23:13:25.745Z,95.50
2017-07-16T23:15:53.956Z,95.90
2017-07-16T23:18:21.411Z,95.80
2017-07-16T23:20:48.854Z,95.80
2017-07-16T23:23:16.298Z,95.70
2017-07-16T23:25:43.746Z,95.70
2017-07-16T23:28:11.955Z,95.90
2017-07-16T23:30:39.415Z,95.90
2017-07-16T23:33:06.872Z,96.10
2017-07-16T23:35:34.322Z,96.00
2017-07-16T23:38:01.767Z,95.80
2017-07-16T23:40:29.212Z,96.00
2017-07-16T23:42:56.647Z,96.50
2017-07-16T23:45:24.866Z,97.30
2017-07-16T23:47:52.307Z,97.30
2017-07-16T23:50:19.762Z,97.60
2017-07-16T23:52:47.196Z,98.10
2017-07-16T23:55:15.418Z,98.30
2017-07-16T23:57:42.863Z,98.30
